createdAt,value
2018-05-27T00:01:18.753Z,59.49
2018-05-27T00:03:46.264Z,59.30
2018-05-27T00:06:13.795Z,59.45
2018-05-27T00:08:41.331Z,59.52
2018-05-27T00:11:08.918Z,59.65
2018-05-27T00:13:36.437Z,59.87
2018-05-27T00:16:04.225Z,59.95
2018-05-27T00:18:31.733Z,60.12
2018-05-27T00:20:59.259Z,60.46
2018-05-27T00:23:26.774Z,60.66
2018-05-27T00:25:54.593Z,60.92
2018-05-27T00:28:22.115Z,61.25
2018-05-27T00:30:49.637Z,61.46
2018-05-27T00:33:17.149Z,61.43
2018-05-27T00:35:44.680Z,61.43
2018-05-27T00:38:12.207Z,61.40
2018-05-27T00:40:40.034Z,61.60
2018-05-27T00:43:07.535Z,61.57
2018-05-27T00:45:35.358Z,61.76
2018-05-27T00:48:02.865Z,61.83
2018-05-27T00:50:30.401Z,61.80
2018-05-27T00:52:58.345Z,61.88
2018-05-27T00:55:25.845Z,61.85
2018-05-27T00:57:53.377Z,62.17
2018-05-27T01:00:20.905Z,62.37
2018-05-27T01:02:48.429Z,62.67
2018-05-27T01:05:15.956Z,62.70
2018-05-27T01:07:43.481Z,62.76
2018-05-27T01:10:10.986Z,62.78
2018-05-27T01:12:38.523Z,62.80
2018-05-27T01:15:06.085Z,62.76
2018-05-27T01:17:33.608Z,62.89
2018-05-27T01:20:01.141Z,62.96
2018-05-27T01:22:28.696Z,62.93
2018-05-27T01:24:56.270Z,62.99
2018-05-27T01:27:23.782Z,62.90
2018-05-27T01:29:51.317Z,62.97
2018-05-27T01:32:18.869Z,62.94
2018-05-27T01:34:46.387Z,62.90
2018-05-27T01:37:13.927Z,62.55
2018-05-27T01:39:41.807Z,62.60
2018-05-27T01:42:09.370Z,62.75
2018-05-27T01:44:36.884Z,63.04
2018-05-27T01:47:04.412Z,63.27
2018-05-27T01:49:32.241Z,63.51
2018-05-27T01:52:00.006Z,63.48
2018-05-27T01:54:27.526Z,64.02
2018-05-27T01:56:55.055Z,64.10
2018-05-27T01:59:22.571Z,64.33
2018-05-27T02:01:50.112Z,64.31
2018-05-27T02:04:17.638Z,64.52
2018-05-27T02:06:45.177Z,64.77
2018-05-27T02:09:12.691Z,64.70
2018-05-27T02:11:40.209Z,64.71
2018-05-27T02:14:07.720Z,64.75
2018-05-27T02:16:35.319Z,64.75
2018-05-27T02:19:02.841Z,64.66
2018-05-27T02:21:30.384Z,64.67
2018-05-27T02:23:57.887Z,64.77
2018-05-27T02:26:25.756Z,64.88
2018-05-27T02:28:53.333Z,65.31
2018-05-27T02:31:20.895Z,65.77
2018-05-27T02:33:48.439Z,65.78
2018-05-27T02:36:16.204Z,65.67
2018-05-27T02:38:43.739Z,65.60
2018-05-27T02:41:11.264Z,65.86
2018-05-27T02:43:38.798Z,65.93
2018-05-27T02:46:06.312Z,65.89
2018-05-27T02:48:33.845Z,65.98
2018-05-27T02:51:01.383Z,66.19
2018-05-27T02:53:28.920Z,66.76
2018-05-27T02:55:56.440Z,66.94
2018-05-27T02:58:23.983Z,66.97
2018-05-27T03:00:51.554Z,66.94
2018-05-27T03:03:19.100Z,67.19
2018-05-27T03:05:46.615Z,67.32
2018-05-27T03:08:14.399Z,67.34
2018-05-27T03:10:41.960Z,67.35
2018-05-27T03:13:09.826Z,67.32
2018-05-27T03:15:37.591Z,67.37
2018-05-27T03:18:05.127Z,67.48
2018-05-27T03:20:32.634Z,67.38
2018-05-27T03:23:00.163Z,67.56
2018-05-27T03:25:27.910Z,67.54
2018-05-27T03:27:55.455Z,67.61
2018-05-27T03:30:22.981Z,67.78
2018-05-27T03:32:50.545Z,67.97
2018-05-27T03:35:18.124Z,68.09
2018-05-27T03:37:45.655Z,68.09
2018-05-27T03:40:13.179Z,67.97
2018-05-27T03:42:40.731Z,67.83
2018-05-27T03:45:08.232Z,67.87
2018-05-27T03:47:35.771Z,67.93
2018-05-27T03:50:03.272Z,67.89
2018-05-27T03:52:30.805Z,68.00
2018-05-27T03:54:58.322Z,67.89
2018-05-27T03:57:25.852Z,67.82
2018-05-27T03:59:53.359Z,67.55
2018-05-27T04:02:21.147Z,67.51
2018-05-27T04:05:00.389Z,67.47
2018-05-27T04:07:40.572Z,67.57
2018-05-27T04:10:08.111Z,67.70
2018-05-27T04:12:35.629Z,67.55
2018-05-27T04:15:03.149Z,67.34
2018-05-27T04:17:30.682Z,67.41
2018-05-27T04:19:58.243Z,67.21
2018-05-27T04:22:25.749Z,67.08
2018-05-27T04:24:53.285Z,66.94
2018-05-27T04:27:20.795Z,67.07
2018-05-27T04:29:48.584Z,67.13
2018-05-27T04:32:16.120Z,67.13
2018-05-27T04:34:43.663Z,66.98
2018-05-27T04:37:11.190Z,66.93
2018-05-27T04:39:38.733Z,66.92
2018-05-27T04:42:06.256Z,67.15
2018-05-27T04:44:33.804Z,67.22
2018-05-27T04:47:01.330Z,67.36
2018-05-27T04:49:28.970Z,67.44
2018-05-27T04:51:56.483Z,67.35
2018-05-27T04:54:24.021Z,67.40
2018-05-27T04:56:51.535Z,67.51
2018-05-27T04:59:19.070Z,67.30
2018-05-27T05:01:46.616Z,67.42
2018-05-27T05:04:14.173Z,67.20
2018-05-27T05:06:41.735Z,67.04
2018-05-27T05:09:09.254Z,66.91
2018-05-27T05:11:36.767Z,66.76
2018-05-27T05:14:04.580Z,66.66
2018-05-27T05:16:32.081Z,66.50
2018-05-27T05:18:59.612Z,66.43
2018-05-27T05:21:27.455Z,66.32
2018-05-27T05:23:54.993Z,66.24
2018-05-27T05:26:22.779Z,66.28
2018-05-27T05:28:50.357Z,66.33
2018-05-27T05:31:17.884Z,66.28
2018-05-27T05:33:45.412Z,65.96
2018-05-27T05:36:12.939Z,65.92
2018-05-27T05:38:40.481Z,65.67
2018-05-27T05:41:08.411Z,65.54
2018-05-27T05:43:35.962Z,65.60
2018-05-27T05:46:03.502Z,65.13
2018-05-27T05:48:31.035Z,65.08
2018-05-27T05:50:58.569Z,65.02
2018-05-27T05:53:26.109Z,64.84
2018-05-27T05:55:53.627Z,64.82
2018-05-27T05:58:21.388Z,64.54
2018-05-27T06:00:48.917Z,64.49
2018-05-27T06:03:16.424Z,64.20
2018-05-27T06:05:43.946Z,64.41
2018-05-27T06:08:11.662Z,64.06
2018-05-27T06:10:39.187Z,64.01
2018-05-27T06:13:06.703Z,64.13
2018-05-27T06:15:34.623Z,64.32
2018-05-27T06:18:02.142Z,64.02
2018-05-27T06:20:29.694Z,64.21
2018-05-27T06:22:57.216Z,64.12
2018-05-27T06:25:24.733Z,64.16
2018-05-27T06:27:52.253Z,63.63
2018-05-27T06:30:19.802Z,63.40
2018-05-27T06:32:47.398Z,63.27
2018-05-27T06:35:15.418Z,62.29
2018-05-27T06:37:42.917Z,61.70
2018-05-27T06:40:10.448Z,61.26
2018-05-27T06:42:38.285Z,60.04
2018-05-27T06:45:05.836Z,59.45
2018-05-27T06:47:33.639Z,59.03
2018-05-27T06:50:01.156Z,58.38
2018-05-27T06:52:28.709Z,57.05
2018-05-27T06:54:56.500Z,55.65
2018-05-27T06:57:24.025Z,54.81
2018-05-27T06:59:51.825Z,53.47
2018-05-27T07:02:19.335Z,53.01
2018-05-27T07:04:46.941Z,52.68
2018-05-27T07:07:14.410Z,51.49
2018-05-27T07:09:41.945Z,51.14
2018-05-27T07:12:10.165Z,50.26
2018-05-27T07:14:37.787Z,48.87
2018-05-27T07:17:05.364Z,48.18
2018-05-27T07:19:32.868Z,47.51
2018-05-27T07:22:00.431Z,45.64
2018-05-27T07:24:27.988Z,45.38
2018-05-27T07:26:55.508Z,45.52
2018-05-27T07:29:23.047Z,44.59
2018-05-27T07:31:50.572Z,43.50
2018-05-27T07:34:18.162Z,42.58
2018-05-27T07:36:45.684Z,42.36
2018-05-27T07:39:13.526Z,42.88
2018-05-27T07:41:41.233Z,42.27
2018-05-27T07:44:08.773Z,42.94
2018-05-27T07:46:36.317Z,43.30
2018-05-27T07:49:03.938Z,43.41
2018-05-27T07:51:31.576Z,44.27
2018-05-27T07:53:59.115Z,44.84
2018-05-27T07:56:26.626Z,44.86
2018-05-27T07:58:54.136Z,44.28
2018-05-27T08:01:21.666Z,43.43
2018-05-27T08:03:49.182Z,43.22
2018-05-27T08:06:16.757Z,42.01
2018-05-27T08:08:44.285Z,41.83
2018-05-27T08:11:12.114Z,40.82
2018-05-27T08:13:39.875Z,40.34
2018-05-27T08:16:07.393Z,38.68
2018-05-27T08:18:34.915Z,38.26
2018-05-27T08:21:02.460Z,36.57
2018-05-27T08:23:29.966Z,36.47
2018-05-27T08:25:57.546Z,35.73
2018-05-27T08:28:25.068Z,35.51
2018-05-27T08:30:52.628Z,34.88
2018-05-27T08:33:20.148Z,34.18
2018-05-27T08:35:47.665Z,33.58
2018-05-27T08:38:15.195Z,33.69
2018-05-27T08:40:43.123Z,33.40
2018-05-27T08:43:10.646Z,32.70
2018-05-27T08:45:38.213Z,33.39
2018-05-27T08:48:05.856Z,33.54
2018-05-27T08:50:33.501Z,34.07
2018-05-27T08:53:01.123Z,33.33
2018-05-27T08:55:28.733Z,33.27
2018-05-27T08:57:56.619Z,32.31
2018-05-27T09:00:24.136Z,32.87
2018-05-27T09:02:51.741Z,32.14
2018-05-27T09:05:19.577Z,31.86
2018-05-27T09:07:47.107Z,30.93
2018-05-27T09:10:15.117Z,32.02
2018-05-27T09:15:20.783Z,32.65
2018-05-27T09:17:48.744Z,32.95
2018-05-27T09:20:16.311Z,33.38
2018-05-27T09:22:43.835Z,31.87
2018-05-27T09:25:11.451Z,30.79
2018-05-27T09:27:38.935Z,31.70
2018-05-27T09:30:06.610Z,32.31
2018-05-27T09:32:34.369Z,33.63
2018-05-27T09:35:01.889Z,34.39
2018-05-27T09:37:29.426Z,34.73
2018-05-27T09:39:57.119Z,34.75
2018-05-27T09:42:24.860Z,35.60
2018-05-27T09:44:52.403Z,35.98
2018-05-27T09:47:20.533Z,34.56
2018-05-27T09:49:48.070Z,35.16
2018-05-27T09:52:15.633Z,34.81
2018-05-27T09:54:43.245Z,35.05
2018-05-27T09:57:10.832Z,35.43
2018-05-27T09:59:38.617Z,36.56
2018-05-27T10:02:06.156Z,36.38
2018-05-27T10:04:33.698Z,36.34
2018-05-27T10:07:01.225Z,36.21
2018-05-27T10:09:28.756Z,36.26
2018-05-27T10:11:56.308Z,36.80
2018-05-27T10:14:23.838Z,36.59
2018-05-27T10:16:51.374Z,34.47
2018-05-27T10:19:18.901Z,34.33
2018-05-27T10:21:46.427Z,34.32
2018-05-27T10:24:15.158Z,33.90
2018-05-27T10:26:42.847Z,34.69
2018-05-27T10:29:10.400Z,34.74
2018-05-27T10:31:38.005Z,34.38
2018-05-27T10:34:05.557Z,33.86
2018-05-27T10:36:33.119Z,34.79
2018-05-27T10:39:00.726Z,32.93
2018-05-27T10:41:28.574Z,31.91
2018-05-27T10:43:56.340Z,30.21
2018-05-27T10:46:23.942Z,28.39
2018-05-27T10:48:51.457Z,27.21
2018-05-27T10:51:19.044Z,29.10
2018-05-27T10:53:47.417Z,29.35
2018-05-27T10:56:14.953Z,30.61
2018-05-27T10:58:42.526Z,31.27
2018-05-27T11:01:10.081Z,32.02
2018-05-27T11:03:37.662Z,32.11
2018-05-27T11:06:06.139Z,32.22
2018-05-27T11:08:33.734Z,32.65
2018-05-27T11:11:01.250Z,31.95
2018-05-27T11:13:28.795Z,32.59
2018-05-27T11:15:56.329Z,33.04
2018-05-27T11:18:24.012Z,33.44
2018-05-27T11:20:51.524Z,33.17
2018-05-27T11:23:19.056Z,32.92
2018-05-27T11:25:46.602Z,32.87
2018-05-27T11:28:14.158Z,32.37
2018-05-27T11:30:41.958Z,30.98
2018-05-27T11:33:09.496Z,30.43
2018-05-27T11:35:37.039Z,28.47
2018-05-27T11:38:04.578Z,28.56
2018-05-27T11:40:32.088Z,27.44
2018-05-27T11:42:59.624Z,27.76
2018-05-27T11:45:27.155Z,28.82
2018-05-27T11:47:54.675Z,28.28
2018-05-27T11:50:22.202Z,28.09
2018-05-27T11:52:49.732Z,27.71
2018-05-27T11:55:17.541Z,27.26
2018-05-27T11:57:45.071Z,27.95
2018-05-27T12:00:12.579Z,28.81
2018-05-27T12:02:40.099Z,28.80
2018-05-27T12:05:07.620Z,27.32
2018-05-27T12:07:36.031Z,28.11
2018-05-27T12:10:04.038Z,26.38
2018-05-27T12:12:31.811Z,27.23
2018-05-27T12:14:59.321Z,28.31
2018-05-27T12:17:26.905Z,29.08
2018-05-27T12:19:54.442Z,29.40
2018-05-27T12:22:21.954Z,30.80
2018-05-27T12:24:49.459Z,31.12
2018-05-27T12:27:17.066Z,31.62
2018-05-27T12:29:44.871Z,32.49
2018-05-27T12:32:12.423Z,32.68
2018-05-27T12:34:39.940Z,32.80
2018-05-27T12:37:07.476Z,31.79
2018-05-27T12:39:35.760Z,29.98
2018-05-27T12:42:03.308Z,31.02
2018-05-27T12:44:30.812Z,31.28
2018-05-27T12:46:58.329Z,32.30
2018-05-27T12:49:25.858Z,35.39
2018-05-27T12:51:53.388Z,37.17
2018-05-27T12:54:20.905Z,37.80
2018-05-27T12:56:48.428Z,35.89
2018-05-27T12:59:15.954Z,37.42
2018-05-27T13:01:44.341Z,37.52
2018-05-27T13:04:11.868Z,38.77
2018-05-27T13:06:39.433Z,38.47
2018-05-27T13:09:07.248Z,42.61
2018-05-27T13:11:34.755Z,41.84
2018-05-27T13:14:02.303Z,40.96
2018-05-27T13:16:30.159Z,39.64
2018-05-27T13:18:57.808Z,36.65
2018-05-27T13:21:25.332Z,35.44
2018-05-27T13:23:53.120Z,34.29
2018-05-27T13:26:20.873Z,34.16
2018-05-27T13:28:48.395Z,35.15
2018-05-27T13:31:15.915Z,36.35
2018-05-27T13:33:43.434Z,37.75
2018-05-27T13:36:11.371Z,38.89
2018-05-27T13:38:38.903Z,36.40
2018-05-27T13:41:06.421Z,36.69
2018-05-27T13:43:33.942Z,37.25
2018-05-27T13:46:01.786Z,36.75
2018-05-27T13:48:29.371Z,36.32
2018-05-27T13:50:56.895Z,36.63
2018-05-27T13:53:24.774Z,37.15
2018-05-27T13:55:52.330Z,38.43
2018-05-27T13:58:19.898Z,37.53
2018-05-27T14:00:47.459Z,38.34
2018-05-27T14:03:15.007Z,37.60
2018-05-27T14:05:42.599Z,38.16
2018-05-27T14:08:10.150Z,39.07
2018-05-27T14:10:37.680Z,36.93
2018-05-27T14:13:05.200Z,36.57
2018-05-27T14:15:32.770Z,36.88
2018-05-27T14:18:00.300Z,37.40
2018-05-27T14:20:28.130Z,37.36
2018-05-27T14:22:56.526Z,36.41
2018-05-27T14:25:24.034Z,36.22
2018-05-27T14:27:51.555Z,35.53
2018-05-27T14:30:19.082Z,34.79
2018-05-27T14:32:46.591Z,34.20
2018-05-27T14:35:14.123Z,34.52
2018-05-27T14:37:41.988Z,35.14
2018-05-27T14:40:09.670Z,35.48
2018-05-27T14:42:37.188Z,35.29
2018-05-27T14:45:04.796Z,34.81
2018-05-27T14:47:32.360Z,35.16
2018-05-27T14:49:59.909Z,34.93
2018-05-27T14:52:27.414Z,35.22
2018-05-27T14:54:54.938Z,33.68
2018-05-27T14:57:22.441Z,33.53
2018-05-27T14:59:49.971Z,33.79
2018-05-27T15:02:17.488Z,33.98
2018-05-27T15:04:45.025Z,34.69
2018-05-27T15:07:12.578Z,35.43
2018-05-27T15:09:40.183Z,35.95
2018-05-27T15:12:07.705Z,36.89
2018-05-27T15:14:35.937Z,38.25
2018-05-27T15:17:03.503Z,39.09
2018-05-27T15:19:31.424Z,39.49
2018-05-27T15:21:58.974Z,39.91
2018-05-27T15:24:26.639Z,40.64
2018-05-27T15:26:54.503Z,37.40
2018-05-27T15:29:22.132Z,36.17
2018-05-27T15:31:49.906Z,36.64
2018-05-27T15:34:18.131Z,40.95
2018-05-27T15:36:46.529Z,38.10
2018-05-27T15:39:14.734Z,38.51
2018-05-27T15:41:42.347Z,38.93
2018-05-27T15:44:09.883Z,39.22
2018-05-27T15:46:37.669Z,39.95
2018-05-27T15:49:05.194Z,40.27
2018-05-27T15:51:32.701Z,41.03
2018-05-27T15:54:00.292Z,41.31
2018-05-27T15:56:27.797Z,41.84
2018-05-27T15:58:55.924Z,41.42
2018-05-27T16:01:23.433Z,41.42
2018-05-27T16:03:50.944Z,41.47
2018-05-27T16:06:18.440Z,42.36
2018-05-27T16:08:46.016Z,42.07
2018-05-27T16:11:13.551Z,42.50
2018-05-27T16:13:41.103Z,42.52
2018-05-27T16:16:09.031Z,41.96
2018-05-27T16:18:36.566Z,42.30
2018-05-27T16:21:04.089Z,42.45
2018-05-27T16:23:31.647Z,42.10
2018-05-27T16:25:59.466Z,42.10
2018-05-27T16:28:27.013Z,41.81
2018-05-27T16:30:55.439Z,41.97
2018-05-27T16:33:22.982Z,42.58
2018-05-27T16:35:50.506Z,41.90
2018-05-27T16:38:18.036Z,41.74
2018-05-27T16:40:45.682Z,42.01
2018-05-27T16:43:13.222Z,41.94
2018-05-27T16:45:40.788Z,41.94
2018-05-27T16:48:08.428Z,42.42
2018-05-27T16:50:35.974Z,42.73
2018-05-27T16:53:03.716Z,43.18
2018-05-27T16:55:31.256Z,42.86
2018-05-27T16:57:58.752Z,42.79
2018-05-27T17:00:26.283Z,42.73
2018-05-27T17:02:53.809Z,42.87
2018-05-27T17:05:21.362Z,43.10
2018-05-27T17:07:48.877Z,43.01
2018-05-27T17:10:16.468Z,43.03
2018-05-27T17:12:44.245Z,43.13
2018-05-27T17:15:11.836Z,43.05
2018-05-27T17:17:39.346Z,43.22
2018-05-27T17:20:06.907Z,43.17
2018-05-27T17:22:35.152Z,43.49
2018-05-27T17:25:02.968Z,43.56
2018-05-27T17:27:30.470Z,43.93
2018-05-27T17:29:58.001Z,44.19
2018-05-27T17:32:25.565Z,44.50
2018-05-27T17:34:53.324Z,45.07
2018-05-27T17:37:21.081Z,44.60
2018-05-27T17:39:48.592Z,44.56
2018-05-27T17:42:16.119Z,44.71
2018-05-27T17:44:43.641Z,45.27
2018-05-27T17:47:11.441Z,45.12
2018-05-27T17:49:38.999Z,45.42
2018-05-27T17:52:07.257Z,45.43
2018-05-27T17:54:34.836Z,45.94
2018-05-27T17:57:02.382Z,45.50
2018-05-27T17:59:29.890Z,46.10
2018-05-27T18:01:57.523Z,46.24
2018-05-27T18:04:25.032Z,45.95
2018-05-27T18:06:52.596Z,46.00
2018-05-27T18:09:21.915Z,46.63
2018-05-27T18:11:49.700Z,49.62
2018-05-27T18:14:17.229Z,54.81
2018-05-27T18:16:45.035Z,51.60
2018-05-27T18:19:12.566Z,51.40
2018-05-27T18:21:40.501Z,52.15
2018-05-27T18:24:08.083Z,50.88
2018-05-27T18:26:35.611Z,52.98
2018-05-27T18:29:03.145Z,52.00
2018-05-27T18:31:30.670Z,52.52
2018-05-27T18:33:58.194Z,52.12
2018-05-27T18:36:26.017Z,51.72
2018-05-27T18:38:53.517Z,52.57
2018-05-27T18:41:21.092Z,52.20
2018-05-27T18:43:48.619Z,53.51
2018-05-27T18:46:16.184Z,53.39
2018-05-27T18:48:43.736Z,52.22
2018-05-27T18:51:11.274Z,51.83
2018-05-27T18:53:38.824Z,51.58
2018-05-27T18:56:06.414Z,51.39
2018-05-27T18:58:33.927Z,52.49
2018-05-27T19:01:01.459Z,51.82
2018-05-27T19:03:28.979Z,52.38
2018-05-27T19:05:56.559Z,52.67
2018-05-27T19:08:25.017Z,52.29
2018-05-27T19:10:52.886Z,52.61
2018-05-27T19:13:20.464Z,51.78
2018-05-27T19:15:48.028Z,53.60
2018-05-27T19:18:15.529Z,53.09
2018-05-27T19:20:43.147Z,53.43
2018-05-27T19:23:10.721Z,53.52
2018-05-27T19:25:38.271Z,53.98
2018-05-27T19:28:05.772Z,53.76
2018-05-27T19:30:33.588Z,53.33
2018-05-27T19:33:01.124Z,54.78
2018-05-27T19:35:29.008Z,54.42
2018-05-27T19:37:56.554Z,55.09
2018-05-27T19:40:24.082Z,55.25
2018-05-27T19:42:51.874Z,54.09
2018-05-27T19:45:19.390Z,55.42
2018-05-27T19:47:46.912Z,56.52
2018-05-27T19:50:15.524Z,56.77
2018-05-27T19:52:43.046Z,57.21
2018-05-27T19:55:11.050Z,57.33
2018-05-27T19:57:38.715Z,57.48
2018-05-27T20:00:06.562Z,57.52
2018-05-27T20:02:34.365Z,57.94
2018-05-27T20:05:02.009Z,58.12
2018-05-27T20:07:29.554Z,58.16
2018-05-27T20:09:57.082Z,58.16
2018-05-27T20:12:24.754Z,58.43
2018-05-27T20:14:52.279Z,58.53
2018-05-27T20:17:20.112Z,58.70
2018-05-27T20:19:47.662Z,58.90
2018-05-27T20:22:15.534Z,58.78
2018-05-27T20:24:43.160Z,58.88
2018-05-27T20:27:10.718Z,58.61
2018-05-27T20:29:38.262Z,59.04
2018-05-27T20:32:06.487Z,58.88
2018-05-27T20:34:34.012Z,58.80
2018-05-27T20:37:01.683Z,58.63
2018-05-27T20:39:29.473Z,58.62
2018-05-27T20:41:57.047Z,58.53
2018-05-27T20:44:24.582Z,58.81
2018-05-27T20:46:52.126Z,58.45
2018-05-27T20:49:19.920Z,58.32
2018-05-27T20:51:47.496Z,58.66
2018-05-27T20:54:15.057Z,58.58
2018-05-27T20:56:42.711Z,58.49
2018-05-27T20:59:10.266Z,58.30
2018-05-27T21:01:37.785Z,58.39
2018-05-27T21:04:05.414Z,58.53
2018-05-27T21:06:32.947Z,58.22
2018-05-27T21:09:01.612Z,58.20
2018-05-27T21:11:29.369Z,58.14
2018-05-27T21:13:57.172Z,58.11
2018-05-27T21:16:24.814Z,57.91
2018-05-27T21:18:52.339Z,57.85
2018-05-27T21:21:19.845Z,58.14
2018-05-27T21:23:48.383Z,57.94
2018-05-27T21:26:15.887Z,57.96
2018-05-27T21:28:43.447Z,58.00
2018-05-27T21:31:10.973Z,57.86
2018-05-27T21:33:38.886Z,57.99
2018-05-27T21:36:06.385Z,58.26
2018-05-27T21:38:33.920Z,58.22
2018-05-27T21:41:01.426Z,58.34
2018-05-27T21:43:28.937Z,58.33
2018-05-27T21:45:56.490Z,58.40
2018-05-27T21:48:24.009Z,58.57
2018-05-27T21:50:51.526Z,58.78
2018-05-27T21:53:19.052Z,58.80
2018-05-27T21:55:46.572Z,58.74
2018-05-27T21:58:14.137Z,58.96
2018-05-27T22:00:41.707Z,59.08
2018-05-27T22:03:09.261Z,59.11
2018-05-27T22:05:36.800Z,59.14
2018-05-27T22:08:04.388Z,59.38
2018-05-27T22:10:31.918Z,59.56
2018-05-27T22:12:59.430Z,59.51
2018-05-27T22:15:26.935Z,59.89
2018-05-27T22:17:54.458Z,59.80
2018-05-27T22:20:22.254Z,60.18
2018-05-27T22:22:49.787Z,60.22
2018-05-27T22:25:17.301Z,60.16
2018-05-27T22:27:45.142Z,60.31
2018-05-27T22:30:12.809Z,60.42
2018-05-27T22:32:40.644Z,60.35
2018-05-27T22:35:08.181Z,60.67
2018-05-27T22:37:35.982Z,60.64
2018-05-27T22:40:03.540Z,60.73
2018-05-27T22:42:31.042Z,60.76
2018-05-27T22:44:58.590Z,60.97
2018-05-27T22:47:26.137Z,61.02
2018-05-27T22:49:54.012Z,60.94
2018-05-27T22:52:21.512Z,61.24
2018-05-27T22:54:49.089Z,61.07
2018-05-27T22:57:16.608Z,61.41
2018-05-27T22:59:44.146Z,61.21
2018-05-27T23:02:11.673Z,61.48
2018-05-27T23:04:39.205Z,61.34
2018-05-27T23:07:06.722Z,61.78
2018-05-27T23:09:34.242Z,61.92
2018-05-27T23:12:01.775Z,62.11
2018-05-27T23:14:29.596Z,62.02
2018-05-27T23:16:57.105Z,62.17
2018-05-27T23:19:24.650Z,62.26
2018-05-27T23:21:52.727Z,62.37
2018-05-27T23:24:20.295Z,62.38
2018-05-27T23:26:47.846Z,62.53
2018-05-27T23:29:15.397Z,62.62
2018-05-27T23:31:42.952Z,62.86
2018-05-27T23:34:10.493Z,62.96
2018-05-27T23:36:38.117Z,62.92
2018-05-27T23:39:06.431Z,63.03
2018-05-27T23:41:34.192Z,63.04
2018-05-27T23:44:01.755Z,63.17
2018-05-27T23:46:29.397Z,63.16
2018-05-27T23:48:56.939Z,63.25
2018-05-27T23:51:24.447Z,63.18
2018-05-27T23:53:51.974Z,63.29
2018-05-27T23:56:19.762Z,63.32
2018-05-27T23:58:47.345Z,63.46
